sensor_id;sensor_type;location;lat;lon;timestamp;pressure;altitude;pressure_sealevel;temperature;humidity
66196;BME280;53000;45.182;5.736;2023-06-22T00:01:08;99022.09;;;27.82;48.65
66196;BME280;53000;45.182;5.736;2023-06-22T00:03:34;99020.47;;;27.76;48.89
66196;BME280;53000;45.182;5.736;2023-06-22T00:05:59;99015.78;;;27.71;49.10
66196;BME280;53000;45.182;5.736;2023-06-22T00:08:24;99010.78;;;27.68;49.02
66196;BME280;53000;45.182;5.736;2023-06-22T00:10:50;99008.88;;;27.63;48.76
66196;BME280;53000;45.182;5.736;2023-06-22T00:13:16;99010.28;;;27.61;49.09
66196;BME280;53000;45.182;5.736;2023-06-22T00:15:43;99003.66;;;27.57;49.29
66196;BME280;53000;45.182;5.736;2023-06-22T00:18:10;99017.84;;;27.55;48.63
66196;BME280;53000;45.182;5.736;2023-06-22T00:20:36;99002.56;;;27.52;49.12
66196;BME280;53000;45.182;5.736;2023-06-22T00:23:06;99005.09;;;27.49;49.45
66196;BME280;53000;45.182;5.736;2023-06-22T00:25:40;99000.94;;;27.46;49.05
66196;BME280;53000;45.182;5.736;2023-06-22T00:28:06;98987.63;;;27.43;50.08
66196;BME280;53000;45.182;5.736;2023-06-22T00:30:32;98996.53;;;27.40;49.33
66196;BME280;53000;45.182;5.736;2023-06-22T00:32:58;98989.63;;;27.32;50.14
66196;BME280;53000;45.182;5.736;2023-06-22T00:35:24;98986.03;;;27.27;49.87
66196;BME280;53000;45.182;5.736;2023-06-22T00:37:58;98981.59;;;27.26;49.60
66196;BME280;53000;45.182;5.736;2023-06-22T00:40:28;98987.16;;;27.26;50.25
66196;BME280;53000;45.182;5.736;2023-06-22T00:42:54;98989.94;;;27.26;49.84
66196;BME280;53000;45.182;5.736;2023-06-22T00:45:20;98991.03;;;27.25;49.93
66196;BME280;53000;45.182;5.736;2023-06-22T00:47:47;98999.69;;;27.23;49.91
66196;BME280;53000;45.182;5.736;2023-06-22T00:50:18;98989.97;;;27.16;49.77
66196;BME280;53000;45.182;5.736;2023-06-22T00:52:52;98989.44;;;27.08;48.92
66196;BME280;53000;45.182;5.736;2023-06-22T00:55:19;98980.88;;;27.00;49.96
66196;BME280;53000;45.182;5.736;2023-06-22T00:57:46;98980.63;;;26.96;50.29
66196;BME280;53000;45.182;5.736;2023-06-22T01:00:13;98976.47;;;26.88;50.24
66196;BME280;53000;45.182;5.736;2023-06-22T01:02:40;98967.03;;;26.84;50.25
66196;BME280;53000;45.182;5.736;2023-06-22T01:05:06;98970.13;;;26.83;50.73
66196;BME280;53000;45.182;5.736;2023-06-22T01:08:00;98959.84;;;26.83;50.20
66196;BME280;53000;45.182;5.736;2023-06-22T01:10:32;98954.56;;;26.82;50.48
66196;BME280;53000;45.182;5.736;2023-06-22T01:15:49;98941.25;;;26.79;50.32
66196;BME280;53000;45.182;5.736;2023-06-22T01:18:18;98941.81;;;26.76;50.46
66196;BME280;53000;45.182;5.736;2023-06-22T01:20:45;98939.88;;;26.76;50.74
66196;BME280;53000;45.182;5.736;2023-06-22T01:26:18;98926.91;;;26.61;51.11
66196;BME280;53000;45.182;5.736;2023-06-22T01:31:10;98943.56;;;26.56;52.02
66196;BME280;53000;45.182;5.736;2023-06-22T01:33:39;98944.38;;;26.51;52.38
66196;BME280;53000;45.182;5.736;2023-06-22T01:36:06;98946.91;;;26.48;52.27
66196;BME280;53000;45.182;5.736;2023-06-22T01:38:32;98955.22;;;26.48;52.28
66196;BME280;53000;45.182;5.736;2023-06-22T01:40:59;98944.41;;;26.46;52.51
66196;BME280;53000;45.182;5.736;2023-06-22T01:43:26;98951.63;;;26.37;53.14
66196;BME280;53000;45.182;5.736;2023-06-22T01:45:54;98952.47;;;26.32;52.35
66196;BME280;53000;45.182;5.736;2023-06-22T01:48:20;98944.44;;;26.31;52.45
66196;BME280;53000;45.182;5.736;2023-06-22T01:50:47;98940.28;;;26.23;52.09
66196;BME280;53000;45.182;5.736;2023-06-22T01:53:12;98960.00;;;26.17;52.56
66196;BME280;53000;45.182;5.736;2023-06-22T01:55:37;98945.31;;;26.11;52.71
66196;BME280;53000;45.182;5.736;2023-06-22T01:58:03;98956.97;;;26.08;53.43
66196;BME280;53000;45.182;5.736;2023-06-22T02:00:32;98961.13;;;26.00;53.01
66196;BME280;53000;45.182;5.736;2023-06-22T02:03:19;98960.88;;;25.97;52.98
66196;BME280;53000;45.182;5.736;2023-06-22T02:06:07;98963.66;;;25.97;52.08
66196;BME280;53000;45.182;5.736;2023-06-22T02:08:48;98950.59;;;25.97;52.57
66196;BME280;53000;45.182;5.736;2023-06-22T02:11:16;98962.25;;;25.99;52.63
66196;BME280;53000;45.182;5.736;2023-06-22T02:13:44;98955.88;;;26.04;52.46
66196;BME280;53000;45.182;5.736;2023-06-22T02:16:13;98961.16;;;26.05;52.75
66196;BME280;53000;45.182;5.736;2023-06-22T02:18:46;98955.28;;;26.07;52.42
66196;BME280;53000;45.182;5.736;2023-06-22T02:21:11;98950.03;;;26.10;51.98
66196;BME280;53000;45.182;5.736;2023-06-22T02:23:36;98959.19;;;26.11;52.42
66196;BME280;53000;45.182;5.736;2023-06-22T02:26:03;98965.84;;;26.10;51.70
66196;BME280;53000;45.182;5.736;2023-06-22T02:28:28;98963.06;;;26.10;52.09
66196;BME280;53000;45.182;5.736;2023-06-22T02:30:54;98965.03;;;26.09;51.86
66196;BME280;53000;45.182;5.736;2023-06-22T02:33:19;98950.31;;;26.09;52.19
66196;BME280;53000;45.182;5.736;2023-06-22T02:35:45;98952.28;;;26.03;51.91
66196;BME280;53000;45.182;5.736;2023-06-22T02:38:14;98951.16;;;25.94;51.88
66196;BME280;53000;45.182;5.736;2023-06-22T02:40:39;98960.56;;;25.88;52.61
66196;BME280;53000;45.182;5.736;2023-06-22T02:43:05;98956.13;;;25.82;52.51
66196;BME280;53000;45.182;5.736;2023-06-22T02:45:30;98950.56;;;25.77;52.31
66196;BME280;53000;45.182;5.736;2023-06-22T02:47:56;98954.75;;;25.74;52.45
66196;BME280;53000;45.182;5.736;2023-06-22T02:50:21;98960.84;;;25.71;53.47
66196;BME280;53000;45.182;5.736;2023-06-22T02:52:47;98953.63;;;25.70;52.76
66196;BME280;53000;45.182;5.736;2023-06-22T02:55:12;98953.88;;;25.68;53.43
66196;BME280;53000;45.182;5.736;2023-06-22T02:57:38;98951.13;;;25.68;53.72
66196;BME280;53000;45.182;5.736;2023-06-22T03:00:10;98937.81;;;25.65;53.87
66196;BME280;53000;45.182;5.736;2023-06-22T03:02:42;98943.63;;;25.64;53.55
66196;BME280;53000;45.182;5.736;2023-06-22T03:05:08;98961.66;;;25.61;52.97
66196;BME280;53000;45.182;5.736;2023-06-22T03:07:38;98974.69;;;25.61;53.35
66196;BME280;53000;45.182;5.736;2023-06-22T03:10:04;98965.00;;;25.58;54.23
66196;BME280;53000;45.182;5.736;2023-06-22T03:12:29;98957.50;;;25.59;54.06
66196;BME280;53000;45.182;5.736;2023-06-22T03:14:55;98964.16;;;25.63;54.80
66196;BME280;53000;45.182;5.736;2023-06-22T03:17:20;98968.88;;;25.62;53.73
66196;BME280;53000;45.182;5.736;2023-06-22T03:19:45;98973.03;;;25.65;54.27
66196;BME280;53000;45.182;5.736;2023-06-22T03:22:11;98970.81;;;25.67;54.01
66196;BME280;53000;45.182;5.736;2023-06-22T03:24:36;98957.22;;;25.70;53.96
66196;BME280;53000;45.182;5.736;2023-06-22T03:27:04;98959.72;;;25.72;53.63
66196;BME280;53000;45.182;5.736;2023-06-22T03:29:30;98967.78;;;25.74;53.35
66196;BME280;53000;45.182;5.736;2023-06-22T03:31:56;98962.22;;;25.74;53.24
66196;BME280;53000;45.182;5.736;2023-06-22T03:34:21;98978.31;;;25.71;53.52
66196;BME280;53000;45.182;5.736;2023-06-22T03:36:46;98989.09;;;25.68;53.14
66196;BME280;53000;45.182;5.736;2023-06-22T03:39:12;98999.34;;;25.73;53.25
66196;BME280;53000;45.182;5.736;2023-06-22T03:41:38;99030.16;;;25.76;52.85
66196;BME280;53000;45.182;5.736;2023-06-22T03:44:04;99070.06;;;25.80;53.34
66196;BME280;53000;45.182;5.736;2023-06-22T03:46:29;99096.97;;;25.85;53.13
66196;BME280;53000;45.182;5.736;2023-06-22T03:48:55;99102.53;;;25.80;53.62
66196;BME280;53000;45.182;5.736;2023-06-22T03:51:20;99108.91;;;25.75;53.63
66196;BME280;53000;45.182;5.736;2023-06-22T03:53:45;99118.56;;;25.73;52.89
66196;BME280;53000;45.182;5.736;2023-06-22T03:56:11;99120.50;;;25.72;53.30
66196;BME280;53000;45.182;5.736;2023-06-22T03:58:36;99131.34;;;25.74;53.48
66196;BME280;53000;45.182;5.736;2023-06-22T04:01:07;99148.22;;;25.72;53.55
66196;BME280;53000;45.182;5.736;2023-06-22T04:03:36;99169.28;;;25.68;53.14
66196;BME280;53000;45.182;5.736;2023-06-22T04:06:02;99198.38;;;25.60;53.09
66196;BME280;53000;45.182;5.736;2023-06-22T04:08:27;99188.63;;;25.53;53.71
66196;BME280;53000;45.182;5.736;2023-06-22T04:10:53;99204.13;;;25.43;53.79
66196;BME280;53000;45.182;5.736;2023-06-22T04:13:18;99237.06;;;25.40;53.99
66196;BME280;53000;45.182;5.736;2023-06-22T04:15:44;99220.66;;;25.33;53.99
66196;BME280;53000;45.182;5.736;2023-06-22T04:18:09;99242.81;;;25.28;53.08
66196;BME280;53000;45.182;5.736;2023-06-22T04:20:35;99231.44;;;25.24;54.14
66196;BME280;53000;45.182;5.736;2023-06-22T04:23:00;99244.72;;;25.22;53.77
66196;BME280;53000;45.182;5.736;2023-06-22T04:25:26;99241.94;;;25.22;53.90
66196;BME280;53000;45.182;5.736;2023-06-22T04:27:51;99257.19;;;25.25;53.57
66196;BME280;53000;45.182;5.736;2023-06-22T04:30:17;99268.00;;;25.26;54.28
66196;BME280;53000;45.182;5.736;2023-06-22T04:32:43;99273.56;;;25.32;54.62
66196;BME280;53000;45.182;5.736;2023-06-22T04:35:10;99273.34;;;25.38;54.27
66196;BME280;53000;45.182;5.736;2023-06-22T04:37:35;99273.97;;;25.45;54.66
66196;BME280;53000;45.182;5.736;2023-06-22T04:40:01;99272.59;;;25.48;54.70
66196;BME280;53000;45.182;5.736;2023-06-22T04:42:29;99266.22;;;25.47;54.72
66196;BME280;53000;45.182;5.736;2023-06-22T04:44:54;99274.78;;;25.46;54.44
66196;BME280;53000;45.182;5.736;2023-06-22T04:47:20;99251.78;;;25.45;54.37
66196;BME280;53000;45.182;5.736;2023-06-22T04:49:45;99203.88;;;25.50;56.22
66196;BME280;53000;45.182;5.736;2023-06-22T04:52:12;99184.47;;;25.50;55.04
66196;BME280;53000;45.182;5.736;2023-06-22T04:54:39;99155.38;;;25.47;54.35
66196;BME280;53000;45.182;5.736;2023-06-22T04:57:06;99150.34;;;25.39;55.28
66196;BME280;53000;45.182;5.736;2023-06-22T04:59:36;99159.72;;;25.33;55.24
66196;BME280;53000;45.182;5.736;2023-06-22T05:02:04;99173.00;;;25.31;55.35
66196;BME280;53000;45.182;5.736;2023-06-22T05:04:30;99168.84;;;25.34;55.34
66196;BME280;53000;45.182;5.736;2023-06-22T05:07:02;99141.75;;;25.41;55.06
66196;BME280;53000;45.182;5.736;2023-06-22T05:09:29;99125.44;;;25.49;55.09
66196;BME280;53000;45.182;5.736;2023-06-22T05:11:54;99145.41;;;25.52;54.61
66196;BME280;53000;45.182;5.736;2023-06-22T05:14:21;99141.50;;;25.47;54.63
66196;BME280;53000;45.182;5.736;2023-06-22T05:16:48;99143.72;;;25.45;55.23
66196;BME280;53000;45.182;5.736;2023-06-22T05:19:13;99143.16;;;25.48;54.65
66196;BME280;53000;45.182;5.736;2023-06-22T05:21:39;99157.28;;;25.47;54.73
66196;BME280;53000;45.182;5.736;2023-06-22T05:24:04;99148.13;;;25.46;55.19
66196;BME280;53000;45.182;5.736;2023-06-22T05:26:31;99138.75;;;25.58;54.72
66196;BME280;53000;45.182;5.736;2023-06-22T05:28:58;99134.94;;;25.69;54.36
66196;BME280;53000;45.182;5.736;2023-06-22T05:31:23;99139.09;;;25.77;53.90
66196;BME280;53000;45.182;5.736;2023-06-22T05:33:51;99151.03;;;25.87;54.34
66196;BME280;53000;45.182;5.736;2023-06-22T05:36:17;99145.81;;;25.96;53.85
66196;BME280;53000;45.182;5.736;2023-06-22T05:38:45;99148.06;;;26.04;53.49
66196;BME280;53000;45.182;5.736;2023-06-22T05:41:11;99147.81;;;26.11;53.67
66196;BME280;53000;45.182;5.736;2023-06-22T05:43:36;99149.47;;;26.17;53.26
66196;BME280;53000;45.182;5.736;2023-06-22T05:46:02;99173.09;;;26.25;54.23
66196;BME280;53000;45.182;5.736;2023-06-22T05:48:27;99173.63;;;26.32;53.63
66196;BME280;53000;45.182;5.736;2023-06-22T05:50:53;99179.47;;;26.41;52.99
66196;BME280;53000;45.182;5.736;2023-06-22T05:53:19;99165.31;;;26.42;52.87
66196;BME280;53000;45.182;5.736;2023-06-22T05:55:45;99169.47;;;26.45;53.11
66196;BME280;53000;45.182;5.736;2023-06-22T05:58:11;99165.31;;;26.37;53.29
66196;BME280;53000;45.182;5.736;2023-06-22T06:00:37;99136.19;;;26.24;52.86
66196;BME280;53000;45.182;5.736;2023-06-22T06:03:02;99145.88;;;26.17;52.91
66196;BME280;53000;45.182;5.736;2023-06-22T06:05:29;99146.69;;;26.07;53.65
66196;BME280;53000;45.182;5.736;2023-06-22T06:07:55;99152.50;;;26.00;54.37
66196;BME280;53000;45.182;5.736;2023-06-22T06:10:20;99159.44;;;25.93;53.93
66196;BME280;53000;45.182;5.736;2023-06-22T06:12:46;99155.75;;;25.87;53.73
66196;BME280;53000;45.182;5.736;2023-06-22T06:15:11;99132.72;;;25.76;54.12
66196;BME280;53000;45.182;5.736;2023-06-22T06:17:47;99112.19;;;25.72;54.33
66196;BME280;53000;45.182;5.736;2023-06-22T06:20:13;99109.41;;;25.72;54.47
66196;BME280;53000;45.182;5.736;2023-06-22T06:22:39;99115.25;;;25.76;54.29
66196;BME280;53000;45.182;5.736;2023-06-22T06:25:05;99113.03;;;25.73;54.06
66196;BME280;53000;45.182;5.736;2023-06-22T06:27:30;99113.31;;;25.71;54.61
66196;BME280;53000;45.182;5.736;2023-06-22T06:29:56;99114.16;;;25.71;54.22
66196;BME280;53000;45.182;5.736;2023-06-22T06:32:21;99101.38;;;25.70;54.54
66196;BME280;53000;45.182;5.736;2023-06-22T06:34:47;99112.47;;;25.70;54.37
66196;BME280;53000;45.182;5.736;2023-06-22T06:37:12;99119.13;;;25.69;54.20
66196;BME280;53000;45.182;5.736;2023-06-22T06:39:38;99106.09;;;25.70;54.69
66196;BME280;53000;45.182;5.736;2023-06-22T06:42:05;99111.66;;;25.75;54.31
66196;BME280;53000;45.182;5.736;2023-06-22T06:44:30;99111.97;;;25.84;54.74
66196;BME280;53000;45.182;5.736;2023-06-22T06:46:55;99131.38;;;25.84;54.60
66196;BME280;53000;45.182;5.736;2023-06-22T06:49:21;99117.22;;;25.85;55.35
66196;BME280;53000;45.182;5.736;2023-06-22T06:51:46;99145.25;;;25.89;55.12
66196;BME280;53000;45.182;5.736;2023-06-22T06:54:12;99140.25;;;25.86;55.13
66196;BME280;53000;45.182;5.736;2023-06-22T06:56:37;99138.03;;;25.88;54.45
66196;BME280;53000;45.182;5.736;2023-06-22T06:59:03;99139.16;;;25.92;54.26
66196;BME280;53000;45.182;5.736;2023-06-22T07:01:28;99138.94;;;25.99;55.19
66196;BME280;53000;45.182;5.736;2023-06-22T07:03:58;99109.50;;;26.03;55.14
66196;BME280;53000;45.182;5.736;2023-06-22T07:06:23;99113.94;;;26.09;54.61
66196;BME280;53000;45.182;5.736;2023-06-22T07:08:54;99088.44;;;26.12;55.04
66196;BME280;53000;45.182;5.736;2023-06-22T07:11:20;99097.88;;;26.11;54.28
66196;BME280;53000;45.182;5.736;2023-06-22T07:13:45;99116.72;;;26.04;54.49
66196;BME280;53000;45.182;5.736;2023-06-22T07:16:11;99113.41;;;26.02;54.65
66196;BME280;53000;45.182;5.736;2023-06-22T07:18:36;99123.94;;;26.05;54.34
66196;BME280;53000;45.182;5.736;2023-06-22T07:21:01;99116.16;;;26.07;54.23
66196;BME280;53000;45.182;5.736;2023-06-22T07:23:28;99113.69;;;26.10;53.84
66196;BME280;53000;45.182;5.736;2023-06-22T07:25:53;99101.19;;;26.13;53.61
66196;BME280;53000;45.182;5.736;2023-06-22T07:28:18;99110.34;;;26.14;53.17
66196;BME280;53000;45.182;5.736;2023-06-22T07:30:44;99134.78;;;26.22;53.61
66196;BME280;53000;45.182;5.736;2023-06-22T07:33:09;99159.47;;;26.28;53.75
66196;BME280;53000;45.182;5.736;2023-06-22T07:35:35;99160.31;;;26.34;49.17
66196;BME280;53000;45.182;5.736;2023-06-22T07:38:00;99139.78;;;26.45;49.40
66196;BME280;53000;45.182;5.736;2023-06-22T07:40:26;99090.94;;;26.55;48.44
66196;BME280;53000;45.182;5.736;2023-06-22T07:42:51;99055.41;;;26.62;49.99
66196;BME280;53000;45.182;5.736;2023-06-22T07:45:18;99095.94;;;26.68;50.12
66196;BME280;53000;45.182;5.736;2023-06-22T07:47:43;99106.75;;;26.75;47.93
66196;BME280;53000;45.182;5.736;2023-06-22T07:50:09;99123.13;;;26.81;50.12
66196;BME280;53000;45.182;5.736;2023-06-22T07:52:35;99137.00;;;26.86;49.74
66196;BME280;53000;45.182;5.736;2023-06-22T07:55:01;99161.19;;;26.91;49.08
66196;BME280;53000;45.182;5.736;2023-06-22T07:57:27;99156.72;;;26.95;48.95
66196;BME280;53000;45.182;5.736;2023-06-22T07:59:58;99119.22;;;26.98;47.49
66196;BME280;53000;45.182;5.736;2023-06-22T08:02:25;99100.03;;;27.01;44.90
66196;BME280;53000;45.182;5.736;2023-06-22T08:04:50;99108.91;;;27.08;45.65
66196;BME280;53000;45.182;5.736;2023-06-22T08:07:15;99125.25;;;27.30;45.10
66196;BME280;53000;45.182;5.736;2023-06-22T08:09:46;99139.34;;;27.49;47.21
66196;BME280;53000;45.182;5.736;2023-06-22T08:12:12;99135.72;;;27.54;45.99
66196;BME280;53000;45.182;5.736;2023-06-22T08:14:42;99124.00;;;27.57;46.89
66196;BME280;53000;45.182;5.736;2023-06-22T08:17:08;99128.47;;;27.58;44.55
66196;BME280;53000;45.182;5.736;2023-06-22T08:19:33;99122.91;;;27.58;45.01
66196;BME280;53000;45.182;5.736;2023-06-22T08:21:59;99141.53;;;27.63;44.58
66196;BME280;53000;45.182;5.736;2023-06-22T08:24:25;99161.81;;;27.68;45.44
66196;BME280;53000;45.182;5.736;2023-06-22T08:26:51;99165.69;;;27.72;45.73
66196;BME280;53000;45.182;5.736;2023-06-22T08:29:17;99173.47;;;27.70;45.34
66196;BME280;53000;45.182;5.736;2023-06-22T08:31:42;99170.66;;;27.76;46.70
66196;BME280;53000;45.182;5.736;2023-06-22T08:34:07;99163.94;;;27.82;46.01
66196;BME280;53000;45.182;5.736;2023-06-22T08:36:33;99163.94;;;27.92;45.10
66196;BME280;53000;45.182;5.736;2023-06-22T08:39:03;99155.22;;;28.09;46.02
66196;BME280;53000;45.182;5.736;2023-06-22T08:41:29;99139.28;;;28.20;45.47
66196;BME280;53000;45.182;5.736;2023-06-22T08:43:54;99147.84;;;28.23;45.68
66196;BME280;53000;45.182;5.736;2023-06-22T08:46:19;99161.50;;;28.25;45.47
66196;BME280;53000;45.182;5.736;2023-06-22T08:48:48;99175.13;;;28.26;44.73
66196;BME280;53000;45.182;5.736;2023-06-22T08:51:14;99169.84;;;28.25;44.39
66196;BME280;53000;45.182;5.736;2023-06-22T08:53:39;99150.09;;;28.21;43.33
66196;BME280;53000;45.182;5.736;2023-06-22T08:56:05;99143.44;;;28.17;43.57
66196;BME280;53000;45.182;5.736;2023-06-22T08:58:30;99162.94;;;28.17;43.58
66196;BME280;53000;45.182;5.736;2023-06-22T09:00:55;99164.88;;;28.17;42.68
66196;BME280;53000;45.182;5.736;2023-06-22T09:03:20;99167.09;;;28.20;44.94
66196;BME280;53000;45.182;5.736;2023-06-22T09:05:46;99173.22;;;28.22;45.09
66196;BME280;53000;45.182;5.736;2023-06-22T09:08:11;99176.81;;;28.22;44.53
66196;BME280;53000;45.182;5.736;2023-06-22T09:10:37;99180.16;;;28.24;45.60
66196;BME280;53000;45.182;5.736;2023-06-22T09:13:02;99180.97;;;28.25;46.18
66196;BME280;53000;45.182;5.736;2023-06-22T09:15:27;99180.97;;;28.25;46.00
66196;BME280;53000;45.182;5.736;2023-06-22T09:17:53;99186.53;;;28.25;46.71
66196;BME280;53000;45.182;5.736;2023-06-22T09:20:19;99187.34;;;28.30;47.11
66196;BME280;53000;45.182;5.736;2023-06-22T09:22:45;99182.78;;;28.45;46.64
66196;BME280;53000;45.182;5.736;2023-06-22T09:25:10;99171.03;;;28.58;46.09
66196;BME280;53000;45.182;5.736;2023-06-22T09:27:35;99177.88;;;28.71;45.20
66196;BME280;53000;45.182;5.736;2023-06-22T09:30:01;99174.22;;;28.75;43.26
66196;BME280;53000;45.182;5.736;2023-06-22T09:32:27;99180.03;;;28.79;43.28
66196;BME280;53000;45.182;5.736;2023-06-22T09:34:52;99191.41;;;28.83;43.82
66196;BME280;53000;45.182;5.736;2023-06-22T09:37:18;99193.09;;;28.84;43.81
66196;BME280;53000;45.182;5.736;2023-06-22T09:39:43;99194.81;;;28.80;43.29
66196;BME280;53000;45.182;5.736;2023-06-22T09:42:09;99183.06;;;28.83;43.22
66196;BME280;53000;45.182;5.736;2023-06-22T09:44:34;99159.00;;;28.92;43.78
66196;BME280;53000;45.182;5.736;2023-06-22T09:47:00;99158.03;;;29.07;43.76
66196;BME280;53000;45.182;5.736;2023-06-22T09:49:25;99184.41;;;29.20;43.35
66196;BME280;53000;45.182;5.736;2023-06-22T09:51:51;99197.66;;;29.33;43.81
66196;BME280;53000;45.182;5.736;2023-06-22T09:54:17;99210.34;;;29.44;43.40
66196;BME280;53000;45.182;5.736;2023-06-22T09:56:43;99211.44;;;29.48;41.37
66196;BME280;53000;45.182;5.736;2023-06-22T09:59:08;99206.13;;;29.47;42.01
66196;BME280;53000;45.182;5.736;2023-06-22T10:01:33;99207.31;;;29.41;41.98
66196;BME280;53000;45.182;5.736;2023-06-22T10:03:58;99197.66;;;29.33;41.82
66196;BME280;53000;45.182;5.736;2023-06-22T10:06:24;99207.13;;;29.32;42.24
66196;BME280;53000;45.182;5.736;2023-06-22T10:08:51;99183.00;;;29.22;41.74
66196;BME280;53000;45.182;5.736;2023-06-22T10:11:16;99147.41;;;29.09;42.68
66196;BME280;53000;45.182;5.736;2023-06-22T10:13:42;99161.69;;;29.02;42.30
66196;BME280;53000;45.182;5.736;2023-06-22T10:16:07;99186.56;;;28.99;42.29
66196;BME280;53000;45.182;5.736;2023-06-22T10:18:33;99219.72;;;28.95;42.46
66196;BME280;53000;45.182;5.736;2023-06-22T10:20:58;99177.44;;;28.88;42.25
66196;BME280;53000;45.182;5.736;2023-06-22T10:23:23;99166.59;;;28.86;42.68
66196;BME280;53000;45.182;5.736;2023-06-22T10:25:49;99168.56;;;28.86;42.81
66196;BME280;53000;45.182;5.736;2023-06-22T10:28:15;99175.78;;;28.87;43.31
66196;BME280;53000;45.182;5.736;2023-06-22T10:30:41;99164.03;;;28.90;43.10
66196;BME280;53000;45.182;5.736;2023-06-22T10:33:10;99143.72;;;28.89;43.32
66196;BME280;53000;45.182;5.736;2023-06-22T10:35:35;99130.91;;;28.88;43.43
66196;BME280;53000;45.182;5.736;2023-06-22T10:38:03;99108.97;;;28.82;44.05
66196;BME280;53000;45.182;5.736;2023-06-22T10:40:29;99145.75;;;28.79;44.85
66196;BME280;53000;45.182;5.736;2023-06-22T10:42:54;99171.97;;;28.78;45.23
66196;BME280;53000;45.182;5.736;2023-06-22T10:45:20;99167.22;;;28.78;45.65
66196;BME280;53000;45.182;5.736;2023-06-22T10:47:45;99122.94;;;28.77;44.51
66196;BME280;53000;45.182;5.736;2023-06-22T10:50:11;99074.66;;;28.86;44.61
66196;BME280;53000;45.182;5.736;2023-06-22T10:52:36;99068.09;;;29.01;44.43
66196;BME280;53000;45.182;5.736;2023-06-22T10:55:02;99102.19;;;29.17;44.14
66196;BME280;53000;45.182;5.736;2023-06-22T10:57:27;99109.47;;;29.37;42.73
66196;BME280;53000;45.182;5.736;2023-06-22T10:59:53;99095.28;;;29.58;42.89
66196;BME280;53000;45.182;5.736;2023-06-22T11:02:18;99092.78;;;29.80;41.25
66196;BME280;53000;45.182;5.736;2023-06-22T11:04:43;99076.78;;;30.05;41.30
66196;BME280;53000;45.182;5.736;2023-06-22T11:07:09;99076.91;;;30.32;40.83
66196;BME280;53000;45.182;5.736;2023-06-22T11:09:35;99065.00;;;30.60;40.12
66196;BME280;53000;45.182;5.736;2023-06-22T11:12:00;99052.38;;;30.76;39.01
66196;BME280;53000;45.182;5.736;2023-06-22T11:14:26;99047.44;;;30.87;38.38
66196;BME280;53000;45.182;5.736;2023-06-22T11:16:52;99042.81;;;30.96;40.04
66196;BME280;53000;45.182;5.736;2023-06-22T11:19:18;99053.56;;;31.03;38.67
66196;BME280;53000;45.182;5.736;2023-06-22T11:21:44;99056.25;;;31.08;39.40
66196;BME280;53000;45.182;5.736;2023-06-22T11:24:09;99052.44;;;31.17;38.59
66196;BME280;53000;45.182;5.736;2023-06-22T11:26:35;99066.28;;;31.23;36.95
66196;BME280;53000;45.182;5.736;2023-06-22T11:29:01;99061.75;;;31.27;37.35
66196;BME280;53000;45.182;5.736;2023-06-22T11:31:26;99072.50;;;31.33;37.48
66196;BME280;53000;45.182;5.736;2023-06-22T11:33:52;99080.72;;;31.44;38.19
66196;BME280;53000;45.182;5.736;2023-06-22T11:36:18;99088.88;;;31.54;37.96
66196;BME280;53000;45.182;5.736;2023-06-22T11:38:44;99093.72;;;31.62;37.41
66196;BME280;53000;45.182;5.736;2023-06-22T11:41:10;99069.81;;;31.56;37.32
66196;BME280;53000;45.182;5.736;2023-06-22T11:43:35;99064.31;;;31.51;37.07
66196;BME280;53000;45.182;5.736;2023-06-22T11:46:03;99049.22;;;31.52;37.60
66196;BME280;53000;45.182;5.736;2023-06-22T11:48:28;99054.16;;;31.55;38.29
66196;BME280;53000;45.182;5.736;2023-06-22T11:50:54;99059.44;;;31.56;37.10
66196;BME280;53000;45.182;5.736;2023-06-22T11:53:21;99055.19;;;31.59;37.21
66196;BME280;53000;45.182;5.736;2023-06-22T11:55:47;99041.72;;;31.61;36.72
66196;BME280;53000;45.182;5.736;2023-06-22T11:58:12;99040.47;;;31.67;35.91
66196;BME280;53000;45.182;5.736;2023-06-22T12:00:38;99042.59;;;31.70;36.57
66196;BME280;53000;45.182;5.736;2023-06-22T12:03:03;99047.25;;;31.75;36.28
66196;BME280;53000;45.182;5.736;2023-06-22T12:05:29;99051.28;;;31.83;35.77
66196;BME280;53000;45.182;5.736;2023-06-22T12:07:54;99054.06;;;31.96;35.76
66196;BME280;53000;45.182;5.736;2023-06-22T12:10:22;99038.94;;;32.20;34.72
66196;BME280;53000;45.182;5.736;2023-06-22T12:12:47;99059.47;;;32.38;34.74
66196;BME280;53000;45.182;5.736;2023-06-22T12:15:12;99061.16;;;32.48;34.53
66196;BME280;53000;45.182;5.736;2023-06-22T12:17:38;99063.28;;;32.65;35.78
66196;BME280;53000;45.182;5.736;2023-06-22T12:20:04;99060.09;;;32.80;35.30
66196;BME280;53000;45.182;5.736;2023-06-22T12:22:34;99045.44;;;32.92;32.57
66196;BME280;53000;45.182;5.736;2023-06-22T12:25:00;99049.75;;;32.98;32.65
66196;BME280;53000;45.182;5.736;2023-06-22T12:27:26;99058.38;;;33.02;32.96
66196;BME280;53000;45.182;5.736;2023-06-22T12:29:51;99065.09;;;33.00;33.17
66196;BME280;53000;45.182;5.736;2023-06-22T12:32:17;99058.66;;;32.91;32.94
66196;BME280;53000;45.182;5.736;2023-06-22T12:34:43;99070.84;;;32.87;32.53
66196;BME280;53000;45.182;5.736;2023-06-22T12:37:08;99060.56;;;32.82;33.77
66196;BME280;53000;45.182;5.736;2023-06-22T12:39:34;99053.63;;;32.79;34.05
66196;BME280;53000;45.182;5.736;2023-06-22T12:42:00;99050.78;;;32.71;32.05
66196;BME280;53000;45.182;5.736;2023-06-22T12:44:25;99055.72;;;32.65;33.16
66196;BME280;53000;45.182;5.736;2023-06-22T12:46:50;99039.34;;;32.58;32.65
66196;BME280;53000;45.182;5.736;2023-06-22T12:49:16;99029.72;;;32.51;32.90
66196;BME280;53000;45.182;5.736;2023-06-22T12:51:42;99026.41;;;32.49;33.10
66196;BME280;53000;45.182;5.736;2023-06-22T12:54:08;99034.31;;;32.47;32.75
66196;BME280;53000;45.182;5.736;2023-06-22T12:56:34;99022.28;;;32.46;33.26
66196;BME280;53000;45.182;5.736;2023-06-22T12:58:59;99025.75;;;32.52;32.72
66196;BME280;53000;45.182;5.736;2023-06-22T13:01:27;99008.88;;;32.57;33.53
66196;BME280;53000;45.182;5.736;2023-06-22T13:03:53;99009.38;;;32.59;32.79